sensor_id;sensor_type;location;lat;lon;timestamp;temperature;humidity
56771;DHT22;42641;59.794;17.616;2023-07-08T00:00:50;14.70;99.90
56771;DHT22;42641;59.794;17.616;2023-07-08T00:03:18;14.80;99.90
56771;DHT22;42641;59.794;17.616;2023-07-08T00:05:46;14.80;99.90
56771;DHT22;42641;59.794;17.616;2023-07-08T00:08:17;14.80;99.90
56771;DHT22;42641;59.794;17.616;2023-07-08T00:10:45;14.70;99.90
56771;DHT22;42641;59.794;17.616;2023-07-08T00:13:12;14.70;99.90
56771;DHT22;42641;59.794;17.616;2023-07-08T00:15:39;14.60;99.90
56771;DHT22;42641;59.794;17.616;2023-07-08T00:18:15;14.60;99.90
56771;DHT22;42641;59.794;17.616;2023-07-08T00:20:44;14.60;99.90
56771;DHT22;42641;59.794;17.616;2023-07-08T00:23:11;14.60;99.90
56771;DHT22;42641;59.794;17.616;2023-07-08T00:25:39;14.60;99.90
56771;DHT22;42641;59.794;17.616;2023-07-08T00:28:19;14.60;99.90
56771;DHT22;42641;59.794;17.616;2023-07-08T00:30:48;14.60;99.90
56771;DHT22;42641;59.794;17.616;2023-07-08T00:33:16;14.60;99.90
56771;DHT22;42641;59.794;17.616;2023-07-08T00:35:44;14.60;99.90
56771;DHT22;42641;59.794;17.616;2023-07-08T00:38:23;14.60;99.90
56771;DHT22;42641;59.794;17.616;2023-07-08T00:43:58;14.60;99.90
56771;DHT22;42641;59.794;17.616;2023-07-08T00:51:34;14.60;99.90
56771;DHT22;42641;59.794;17.616;2023-07-08T00:54:01;14.50;99.90
56771;DHT22;42641;59.794;17.616;2023-07-08T00:56:36;14.50;99.90
56771;DHT22;42641;59.794;17.616;2023-07-08T00:59:11;14.50;99.90
56771;DHT22;42641;59.794;17.616;2023-07-08T01:01:41;14.50;99.90
56771;DHT22;42641;59.794;17.616;2023-07-08T01:04:21;14.50;99.90
56771;DHT22;42641;59.794;17.616;2023-07-08T01:06:53;14.50;99.90
56771;DHT22;42641;59.794;17.616;2023-07-08T01:09:40;14.50;99.90
56771;DHT22;42641;59.794;17.616;2023-07-08T01:12:15;14.40;99.90
56771;DHT22;42641;59.794;17.616;2023-07-08T01:14:42;14.40;99.90
56771;DHT22;42641;59.794;17.616;2023-07-08T01:17:10;14.30;99.90
56771;DHT22;42641;59.794;17.616;2023-07-08T01:19:44;14.30;99.90
56771;DHT22;42641;59.794;17.616;2023-07-08T01:22:11;14.20;99.90
56771;DHT22;42641;59.794;17.616;2023-07-08T01:24:41;14.20;99.90
56771;DHT22;42641;59.794;17.616;2023-07-08T01:27:12;14.20;99.90
56771;DHT22;42641;59.794;17.616;2023-07-08T01:29:39;14.20;99.90
56771;DHT22;42641;59.794;17.616;2023-07-08T01:32:05;14.20;99.90
56771;DHT22;42641;59.794;17.616;2023-07-08T01:34:33;14.20;99.90
56771;DHT22;42641;59.794;17.616;2023-07-08T01:37:02;14.10;99.90
56771;DHT22;42641;59.794;17.616;2023-07-08T01:39:31;14.10;99.90
56771;DHT22;42641;59.794;17.616;2023-07-08T01:41:58;14.10;99.90
56771;DHT22;42641;59.794;17.616;2023-07-08T01:44:33;14.10;99.90
56771;DHT22;42641;59.794;17.616;2023-07-08T01:47:07;14.00;99.90
56771;DHT22;42641;59.794;17.616;2023-07-08T01:49:37;14.00;99.90
56771;DHT22;42641;59.794;17.616;2023-07-08T01:52:06;14.00;99.90
56771;DHT22;42641;59.794;17.616;2023-07-08T01:54:33;14.00;99.90
56771;DHT22;42641;59.794;17.616;2023-07-08T01:56:59;14.00;99.90
56771;DHT22;42641;59.794;17.616;2023-07-08T01:59:28;14.00;99.90
56771;DHT22;42641;59.794;17.616;2023-07-08T02:01:55;14.00;99.90
56771;DHT22;42641;59.794;17.616;2023-07-08T02:04:26;14.00;99.90
56771;DHT22;42641;59.794;17.616;2023-07-08T02:06:57;14.00;99.90
56771;DHT22;42641;59.794;17.616;2023-07-08T02:09:25;14.00;99.90
56771;DHT22;42641;59.794;17.616;2023-07-08T02:11:53;13.90;99.90
56771;DHT22;42641;59.794;17.616;2023-07-08T02:14:20;13.90;99.90
56771;DHT22;42641;59.794;17.616;2023-07-08T02:16:46;13.90;99.90
56771;DHT22;42641;59.794;17.616;2023-07-08T02:19:13;13.90;99.90
56771;DHT22;42641;59.794;17.616;2023-07-08T02:21:40;13.90;99.90
56771;DHT22;42641;59.794;17.616;2023-07-08T02:24:07;13.90;99.90
56771;DHT22;42641;59.794;17.616;2023-07-08T02:26:35;13.90;99.90
56771;DHT22;42641;59.794;17.616;2023-07-08T02:29:02;13.90;99.90
56771;DHT22;42641;59.794;17.616;2023-07-08T02:31:30;13.90;99.90
56771;DHT22;42641;59.794;17.616;2023-07-08T02:33:57;13.90;99.90
56771;DHT22;42641;59.794;17.616;2023-07-08T02:36:23;14.00;99.90
56771;DHT22;42641;59.794;17.616;2023-07-08T02:38:50;13.90;99.90
56771;DHT22;42641;59.794;17.616;2023-07-08T02:41:16;13.90;99.90
56771;DHT22;42641;59.794;17.616;2023-07-08T02:43:43;13.90;99.90
56771;DHT22;42641;59.794;17.616;2023-07-08T02:46:10;13.90;99.90
56771;DHT22;42641;59.794;17.616;2023-07-08T02:48:36;13.90;99.90
56771;DHT22;42641;59.794;17.616;2023-07-08T02:51:04;13.90;99.90
56771;DHT22;42641;59.794;17.616;2023-07-08T02:53:31;14.00;99.90
56771;DHT22;42641;59.794;17.616;2023-07-08T02:55:58;14.00;99.90
56771;DHT22;42641;59.794;17.616;2023-07-08T02:58:24;14.00;99.90
56771;DHT22;42641;59.794;17.616;2023-07-08T03:00:55;14.10;99.90
56771;DHT22;42641;59.794;17.616;2023-07-08T03:03:22;14.10;99.90
56771;DHT22;42641;59.794;17.616;2023-07-08T03:05:56;14.10;99.90
56771;DHT22;42641;59.794;17.616;2023-07-08T03:08:23;14.10;99.90
56771;DHT22;42641;59.794;17.616;2023-07-08T03:10:57;14.10;99.90
56771;DHT22;42641;59.794;17.616;2023-07-08T03:13:25;14.20;99.90
56771;DHT22;42641;59.794;17.616;2023-07-08T03:15:52;14.20;99.90
56771;DHT22;42641;59.794;17.616;2023-07-08T03:18:18;14.20;99.90
56771;DHT22;42641;59.794;17.616;2023-07-08T03:20:48;14.30;99.90
56771;DHT22;42641;59.794;17.616;2023-07-08T03:23:16;14.30;99.90
56771;DHT22;42641;59.794;17.616;2023-07-08T03:25:42;14.30;99.90
56771;DHT22;42641;59.794;17.616;2023-07-08T03:28:10;14.40;99.90
56771;DHT22;42641;59.794;17.616;2023-07-08T03:30:42;14.40;99.90
56771;DHT22;42641;59.794;17.616;2023-07-08T03:33:10;14.50;99.90
56771;DHT22;42641;59.794;17.616;2023-07-08T03:35:40;14.50;99.90
56771;DHT22;42641;59.794;17.616;2023-07-08T03:38:06;14.50;99.90
56771;DHT22;42641;59.794;17.616;2023-07-08T03:40:33;14.60;99.90
56771;DHT22;42641;59.794;17.616;2023-07-08T03:42:59;14.60;99.90
56771;DHT22;42641;59.794;17.616;2023-07-08T03:45:29;14.60;99.90
56771;DHT22;42641;59.794;17.616;2023-07-08T03:47:56;14.60;99.90
56771;DHT22;42641;59.794;17.616;2023-07-08T03:50:25;14.60;99.90
56771;DHT22;42641;59.794;17.616;2023-07-08T03:52:53;14.70;99.90
56771;DHT22;42641;59.794;17.616;2023-07-08T03:55:22;14.70;99.90
56771;DHT22;42641;59.794;17.616;2023-07-08T03:57:49;14.80;99.90
56771;DHT22;42641;59.794;17.616;2023-07-08T04:00:16;14.90;99.90
56771;DHT22;42641;59.794;17.616;2023-07-08T04:02:44;15.00;99.90
56771;DHT22;42641;59.794;17.616;2023-07-08T04:05:17;15.10;99.90
56771;DHT22;42641;59.794;17.616;2023-07-08T04:07:46;15.20;99.90
56771;DHT22;42641;59.794;17.616;2023-07-08T04:10:13;15.20;99.90
56771;DHT22;42641;59.794;17.616;2023-07-08T04:12:40;15.30;99.90
56771;DHT22;42641;59.794;17.616;2023-07-08T04:15:10;15.30;99.90
56771;DHT22;42641;59.794;17.616;2023-07-08T04:17:43;15.40;99.90
56771;DHT22;42641;59.794;17.616;2023-07-08T04:20:13;15.50;99.90
56771;DHT22;42641;59.794;17.616;2023-07-08T04:22:45;15.60;99.90
56771;DHT22;42641;59.794;17.616;2023-07-08T04:25:12;15.60;99.90
56771;DHT22;42641;59.794;17.616;2023-07-08T04:27:40;15.70;99.90
56771;DHT22;42641;59.794;17.616;2023-07-08T04:30:07;15.70;99.90
56771;DHT22;42641;59.794;17.616;2023-07-08T04:32:40;15.70;99.90
56771;DHT22;42641;59.794;17.616;2023-07-08T04:35:08;15.80;99.90
56771;DHT22;42641;59.794;17.616;2023-07-08T04:37:34;15.90;99.90
56771;DHT22;42641;59.794;17.616;2023-07-08T04:40:00;16.00;99.90
56771;DHT22;42641;59.794;17.616;2023-07-08T04:42:27;16.10;99.90
56771;DHT22;42641;59.794;17.616;2023-07-08T04:44:54;16.10;99.90
56771;DHT22;42641;59.794;17.616;2023-07-08T04:47:21;16.10;99.90
56771;DHT22;42641;59.794;17.616;2023-07-08T04:49:47;16.20;99.90
56771;DHT22;42641;59.794;17.616;2023-07-08T04:52:14;16.20;99.90
56771;DHT22;42641;59.794;17.616;2023-07-08T04:54:40;16.30;99.90
56771;DHT22;42641;59.794;17.616;2023-07-08T04:57:07;16.40;99.90
56771;DHT22;42641;59.794;17.616;2023-07-08T04:59:34;16.40;99.90
56771;DHT22;42641;59.794;17.616;2023-07-08T05:02:00;16.50;99.90
56771;DHT22;42641;59.794;17.616;2023-07-08T05:04:27;16.50;99.90
56771;DHT22;42641;59.794;17.616;2023-07-08T05:06:53;16.60;99.90
56771;DHT22;42641;59.794;17.616;2023-07-08T05:09:20;16.70;99.90
56771;DHT22;42641;59.794;17.616;2023-07-08T05:11:48;16.80;99.90
56771;DHT22;42641;59.794;17.616;2023-07-08T05:14:14;16.90;99.90
56771;DHT22;42641;59.794;17.616;2023-07-08T05:16:41;16.90;99.90
56771;DHT22;42641;59.794;17.616;2023-07-08T05:19:08;17.00;99.90
56771;DHT22;42641;59.794;17.616;2023-07-08T05:21:34;16.90;99.90
56771;DHT22;42641;59.794;17.616;2023-07-08T05:24:02;17.00;99.90
56771;DHT22;42641;59.794;17.616;2023-07-08T05:26:29;17.00;99.90
56771;DHT22;42641;59.794;17.616;2023-07-08T05:28:56;17.10;99.90
56771;DHT22;42641;59.794;17.616;2023-07-08T05:31:22;17.10;99.90
56771;DHT22;42641;59.794;17.616;2023-07-08T05:33:49;17.20;99.90
56771;DHT22;42641;59.794;17.616;2023-07-08T05:36:15;17.30;99.90
56771;DHT22;42641;59.794;17.616;2023-07-08T05:38:41;17.40;99.90
56771;DHT22;42641;59.794;17.616;2023-07-08T05:41:08;17.50;99.90
56771;DHT22;42641;59.794;17.616;2023-07-08T05:43:34;17.60;99.90
56771;DHT22;42641;59.794;17.616;2023-07-08T05:46:01;17.70;99.90
56771;DHT22;42641;59.794;17.616;2023-07-08T05:48:28;17.90;99.90
56771;DHT22;42641;59.794;17.616;2023-07-08T05:50:55;18.00;99.90
56771;DHT22;42641;59.794;17.616;2023-07-08T05:53:22;18.10;99.90
56771;DHT22;42641;59.794;17.616;2023-07-08T05:55:49;18.20;99.90
56771;DHT22;42641;59.794;17.616;2023-07-08T05:58:16;18.40;99.90
56771;DHT22;42641;59.794;17.616;2023-07-08T06:00:43;18.50;99.90
56771;DHT22;42641;59.794;17.616;2023-07-08T06:03:10;18.60;99.90
56771;DHT22;42641;59.794;17.616;2023-07-08T06:05:37;18.70;99.90
56771;DHT22;42641;59.794;17.616;2023-07-08T06:08:05;18.80;99.90
56771;DHT22;42641;59.794;17.616;2023-07-08T06:10:32;18.80;99.90
56771;DHT22;42641;59.794;17.616;2023-07-08T06:12:59;18.90;99.90
56771;DHT22;42641;59.794;17.616;2023-07-08T06:15:25;18.90;99.90
56771;DHT22;42641;59.794;17.616;2023-07-08T06:17:52;18.90;99.90
56771;DHT22;42641;59.794;17.616;2023-07-08T06:20:18;19.00;99.90
56771;DHT22;42641;59.794;17.616;2023-07-08T06:22:45;19.20;99.90
56771;DHT22;42641;59.794;17.616;2023-07-08T06:25:11;19.30;99.90
56771;DHT22;42641;59.794;17.616;2023-07-08T06:27:37;19.40;99.90
56771;DHT22;42641;59.794;17.616;2023-07-08T06:30:05;19.40;99.90
56771;DHT22;42641;59.794;17.616;2023-07-08T06:32:31;19.40;99.90
56771;DHT22;42641;59.794;17.616;2023-07-08T06:34:58;19.50;99.90
56771;DHT22;42641;59.794;17.616;2023-07-08T06:37:24;19.60;99.90
56771;DHT22;42641;59.794;17.616;2023-07-08T06:39:51;19.70;99.90
56771;DHT22;42641;59.794;17.616;2023-07-08T06:42:17;19.70;99.90
56771;DHT22;42641;59.794;17.616;2023-07-08T06:44:52;19.80;99.90
56771;DHT22;42641;59.794;17.616;2023-07-08T06:47:19;20.00;99.90
56771;DHT22;42641;59.794;17.616;2023-07-08T06:49:46;20.10;99.90
56771;DHT22;42641;59.794;17.616;2023-07-08T06:52:14;20.20;99.90
56771;DHT22;42641;59.794;17.616;2023-07-08T06:54:40;20.30;99.90
56771;DHT22;42641;59.794;17.616;2023-07-08T06:57:07;20.50;99.90
56771;DHT22;42641;59.794;17.616;2023-07-08T06:59:34;20.50;99.90
56771;DHT22;42641;59.794;17.616;2023-07-08T07:02:01;20.50;99.90
56771;DHT22;42641;59.794;17.616;2023-07-08T07:04:28;20.50;99.90
56771;DHT22;42641;59.794;17.616;2023-07-08T07:06:54;20.60;99.90
56771;DHT22;42641;59.794;17.616;2023-07-08T07:09:21;20.60;99.90
56771;DHT22;42641;59.794;17.616;2023-07-08T07:11:47;20.60;99.90
56771;DHT22;42641;59.794;17.616;2023-07-08T07:14:14;20.70;99.90
56771;DHT22;42641;59.794;17.616;2023-07-08T07:16:40;20.80;99.90
56771;DHT22;42641;59.794;17.616;2023-07-08T07:19:08;20.90;99.90
56771;DHT22;42641;59.794;17.616;2023-07-08T07:21:35;21.00;99.90
56771;DHT22;42641;59.794;17.616;2023-07-08T07:24:01;21.20;99.90
56771;DHT22;42641;59.794;17.616;2023-07-08T07:26:28;21.30;99.90
56771;DHT22;42641;59.794;17.616;2023-07-08T07:28:54;21.40;99.90
56771;DHT22;42641;59.794;17.616;2023-07-08T07:31:20;21.50;99.90
56771;DHT22;42641;59.794;17.616;2023-07-08T07:33:47;21.50;99.90
56771;DHT22;42641;59.794;17.616;2023-07-08T07:36:13;21.50;99.90
56771;DHT22;42641;59.794;17.616;2023-07-08T07:38:40;21.50;99.90
56771;DHT22;42641;59.794;17.616;2023-07-08T07:41:07;21.60;99.90
56771;DHT22;42641;59.794;17.616;2023-07-08T07:43:36;21.60;99.90
56771;DHT22;42641;59.794;17.616;2023-07-08T07:46:02;21.80;99.90
56771;DHT22;42641;59.794;17.616;2023-07-08T07:48:32;21.90;99.90
56771;DHT22;42641;59.794;17.616;2023-07-08T07:50:58;22.00;99.90
56771;DHT22;42641;59.794;17.616;2023-07-08T07:53:25;22.00;99.90
56771;DHT22;42641;59.794;17.616;2023-07-08T07:55:59;22.00;99.90
56771;DHT22;42641;59.794;17.616;2023-07-08T07:58:26;22.10;99.90
56771;DHT22;42641;59.794;17.616;2023-07-08T08:00:52;22.10;99.90
56771;DHT22;42641;59.794;17.616;2023-07-08T08:03:19;22.10;99.90
56771;DHT22;42641;59.794;17.616;2023-07-08T08:05:47;22.20;99.90
56771;DHT22;42641;59.794;17.616;2023-07-08T08:08:13;22.30;99.90
56771;DHT22;42641;59.794;17.616;2023-07-08T08:10:40;22.40;99.90
56771;DHT22;42641;59.794;17.616;2023-07-08T08:13:06;22.50;99.90
56771;DHT22;42641;59.794;17.616;2023-07-08T08:15:34;22.60;99.90
56771;DHT22;42641;59.794;17.616;2023-07-08T08:18:01;22.70;99.90
56771;DHT22;42641;59.794;17.616;2023-07-08T08:20:28;22.60;99.90
56771;DHT22;42641;59.794;17.616;2023-07-08T08:22:55;22.60;99.90
56771;DHT22;42641;59.794;17.616;2023-07-08T08:25:23;22.60;99.90
56771;DHT22;42641;59.794;17.616;2023-07-08T08:27:50;22.80;99.90
56771;DHT22;42641;59.794;17.616;2023-07-08T08:30:17;22.80;99.90
56771;DHT22;42641;59.794;17.616;2023-07-08T08:32:44;22.80;99.90
56771;DHT22;42641;59.794;17.616;2023-07-08T08:35:10;22.90;99.90
56771;DHT22;42641;59.794;17.616;2023-07-08T08:37:37;23.10;99.90
56771;DHT22;42641;59.794;17.616;2023-07-08T08:40:03;23.30;99.90
56771;DHT22;42641;59.794;17.616;2023-07-08T08:42:40;23.40;99.90
56771;DHT22;42641;59.794;17.616;2023-07-08T08:45:13;23.60;99.90
56771;DHT22;42641;59.794;17.616;2023-07-08T08:48:01;23.60;99.90
56771;DHT22;42641;59.794;17.616;2023-07-08T08:50:29;23.70;99.90
56771;DHT22;42641;59.794;17.616;2023-07-08T08:52:59;23.70;99.90
56771;DHT22;42641;59.794;17.616;2023-07-08T08:55:27;23.80;99.90
56771;DHT22;42641;59.794;17.616;2023-07-08T08:58:09;23.80;99.90
56771;DHT22;42641;59.794;17.616;2023-07-08T09:03:27;23.90;99.90
56771;DHT22;42641;59.794;17.616;2023-07-08T09:05:59;24.00;99.90
56771;DHT22;42641;59.794;17.616;2023-07-08T09:08:34;24.20;99.90
56771;DHT22;42641;59.794;17.616;2023-07-08T09:14:22;24.40;99.90
56771;DHT22;42641;59.794;17.616;2023-07-08T09:17:42;24.40;99.90
56771;DHT22;42641;59.794;17.616;2023-07-08T09:20:15;24.60;99.90
56771;DHT22;42641;59.794;17.616;2023-07-08T09:25:39;24.60;99.90
56771;DHT22;42641;59.794;17.616;2023-07-08T09:28:08;25.00;99.90
56771;DHT22;42641;59.794;17.616;2023-07-08T09:30:35;25.30;99.90
56771;DHT22;42641;59.794;17.616;2023-07-08T09:33:08;25.40;99.90
56771;DHT22;42641;59.794;17.616;2023-07-08T09:35:40;25.40;99.90
56771;DHT22;42641;59.794;17.616;2023-07-08T09:38:18;25.60;99.90
56771;DHT22;42641;59.794;17.616;2023-07-08T09:40:49;25.80;99.90
56771;DHT22;42641;59.794;17.616;2023-07-08T09:45:46;25.90;99.90
56771;DHT22;42641;59.794;17.616;2023-07-08T09:48:18;25.80;99.90
56771;DHT22;42641;59.794;17.616;2023-07-08T09:50:48;25.90;99.90
56771;DHT22;42641;59.794;17.616;2023-07-08T09:53:15;26.10;99.90
56771;DHT22;42641;59.794;17.616;2023-07-08T09:55:42;26.10;99.90
56771;DHT22;42641;59.794;17.616;2023-07-08T09:58:13;26.00;99.90
56771;DHT22;42641;59.794;17.616;2023-07-08T10:00:42;25.90;99.90
56771;DHT22;42641;59.794;17.616;2023-07-08T10:03:30;25.90;99.90
56771;DHT22;42641;59.794;17.616;2023-07-08T10:05:58;25.70;99.90
56771;DHT22;42641;59.794;17.616;2023-07-08T10:08:36;25.90;99.90
56771;DHT22;42641;59.794;17.616;2023-07-08T10:11:28;26.20;99.90
56771;DHT22;42641;59.794;17.616;2023-07-08T10:14:01;26.40;99.90
56771;DHT22;42641;59.794;17.616;2023-07-08T10:16:32;26.30;99.90
56771;DHT22;42641;59.794;17.616;2023-07-08T10:19:00;26.30;99.90
56771;DHT22;42641;59.794;17.616;2023-07-08T10:21:51;26.40;99.90
56771;DHT22;42641;59.794;17.616;2023-07-08T10:27:27;26.80;99.90
56771;DHT22;42641;59.794;17.616;2023-07-08T10:36:09;26.90;99.90
56771;DHT22;42641;59.794;17.616;2023-07-08T10:38:56;27.20;99.90
56771;DHT22;42641;59.794;17.616;2023-07-08T10:47:40;26.90;99.40
56771;DHT22;42641;59.794;17.616;2023-07-08T10:50:30;27.10;98.20
56771;DHT22;42641;59.794;17.616;2023-07-08T10:53:35;27.20;98.60
56771;DHT22;42641;59.794;17.616;2023-07-08T10:58:42;27.60;97.50
56771;DHT22;42641;59.794;17.616;2023-07-08T11:07:04;28.50;97.80
56771;DHT22;42641;59.794;17.616;2023-07-08T11:09:42;28.50;96.40
56771;DHT22;42641;59.794;17.616;2023-07-08T11:12:32;28.00;95.70
56771;DHT22;42641;59.794;17.616;2023-07-08T11:17:32;28.80;95.20
56771;DHT22;42641;59.794;17.616;2023-07-08T11:20:00;29.70;95.10
56771;DHT22;42641;59.794;17.616;2023-07-08T11:22:29;30.30;95.10
56771;DHT22;42641;59.794;17.616;2023-07-08T11:24:59;30.80;91.90
56771;DHT22;42641;59.794;17.616;2023-07-08T11:27:32;31.10;92.20
56771;DHT22;42641;59.794;17.616;2023-07-08T11:32:37;32.00;91.00
56771;DHT22;42641;59.794;17.616;2023-07-08T11:35:23;32.40;90.80
56771;DHT22;42641;59.794;17.616;2023-07-08T11:37:52;32.50;87.20
56771;DHT22;42641;59.794;17.616;2023-07-08T11:40:21;32.70;83.50
56771;DHT22;42641;59.794;17.616;2023-07-08T11:42:53;32.70;85.00
56771;DHT22;42641;59.794;17.616;2023-07-08T11:45:37;33.00;83.40
56771;DHT22;42641;59.794;17.616;2023-07-08T11:48:16;33.30;82.60
56771;DHT22;42641;59.794;17.616;2023-07-08T11:50:46;34.10;80.80
56771;DHT22;42641;59.794;17.616;2023-07-08T11:56:18;34.90;73.60
56771;DHT22;42641;59.794;17.616;2023-07-08T12:01:45;33.30;75.80
56771;DHT22;42641;59.794;17.616;2023-07-08T12:07:20;33.60;71.40
56771;DHT22;42641;59.794;17.616;2023-07-08T12:09:58;34.10;71.10
56771;DHT22;42641;59.794;17.616;2023-07-08T12:12:33;34.00;68.80
56771;DHT22;42641;59.794;17.616;2023-07-08T12:15:23;32.90;74.70
56771;DHT22;42641;59.794;17.616;2023-07-08T12:17:55;31.40;70.50
56771;DHT22;42641;59.794;17.616;2023-07-08T12:20:27;30.30;75.50
56771;DHT22;42641;59.794;17.616;2023-07-08T12:22:54;29.20;76.70
56771;DHT22;42641;59.794;17.616;2023-07-08T12:25:24;28.20;82.40
56771;DHT22;42641;59.794;17.616;2023-07-08T12:27:53;27.70;86.70
56771;DHT22;42641;59.794;17.616;2023-07-08T12:30:19;27.20;90.80
56771;DHT22;42641;59.794;17.616;2023-07-08T12:32:46;26.50;90.90
56771;DHT22;42641;59.794;17.616;2023-07-08T12:35:23;25.90;92.70
56771;DHT22;42641;59.794;17.616;2023-07-08T12:37:52;25.70;94.70
56771;DHT22;42641;59.794;17.616;2023-07-08T12:40:21;25.40;96.10
56771;DHT22;42641;59.794;17.616;2023-07-08T12:42:48;24.80;98.00
56771;DHT22;42641;59.794;17.616;2023-07-08T12:45:17;24.30;99.10
56771;DHT22;42641;59.794;17.616;2023-07-08T12:47:45;24.30;99.90
56771;DHT22;42641;59.794;17.616;2023-07-08T12:50:12;24.30;99.90
56771;DHT22;42641;59.794;17.616;2023-07-08T12:52:40;24.30;99.90
56771;DHT22;42641;59.794;17.616;2023-07-08T12:55:11;24.30;99.90
56771;DHT22;42641;59.794;17.616;2023-07-08T12:57:40;24.50;99.90
56771;DHT22;42641;59.794;17.616;2023-07-08T13:00:29;24.60;99.90
56771;DHT22;42641;59.794;17.616;2023-07-08T13:03:02;24.60;99.90
56771;DHT22;42641;59.794;17.616;2023-07-08T13:05:31;25.30;99.90
56771;DHT22;42641;59.794;17.616;2023-07-08T13:07:58;26.50;99.90
56771;DHT22;42641;59.794;17.616;2023-07-08T13:10:27;27.00;99.20
56771;DHT22;42641;59.794;17.616;2023-07-08T13:12:59;27.00;99.40
56771;DHT22;42641;59.794;17.616;2023-07-08T13:15:45;26.70;99.10
56771;DHT22;42641;59.794;17.616;2023-07-08T13:18:17;26.30;99.90
56771;DHT22;42641;59.794;17.616;2023-07-08T13:20:53;25.90;99.90
56771;DHT22;42641;59.794;17.616;2023-07-08T13:38:49;24.50;99.90
56771;DHT22;42641;59.794;17.616;2023-07-08T15:52:24;36.10;67.80
56771;DHT22;42641;59.794;17.616;2023-07-08T15:54:52;35.70;70.20
56771;DHT22;42641;59.794;17.616;2023-07-08T15:57:18;35.50;70.70
56771;DHT22;42641;59.794;17.616;2023-07-08T15:59:52;34.90;65.80
56771;DHT22;42641;59.794;17.616;2023-07-08T16:02:28;34.00;69.00
56771;DHT22;42641;59.794;17.616;2023-07-08T16:04:57;32.70;69.10
56771;DHT22;42641;59.794;17.616;2023-07-08T16:07:23;31.50;72.10
56771;DHT22;42641;59.794;17.616;2023-07-08T16:09:49;30.50;74.70
56771;DHT22;42641;59.794;17.616;2023-07-08T16:12:18;29.90;78.00
56771;DHT22;42641;59.794;17.616;2023-07-08T16:14:46;29.40;79.10
56771;DHT22;42641;59.794;17.616;2023-07-08T16:17:13;29.00;80.80
56771;DHT22;42641;59.794;17.616;2023-07-08T16:19:39;28.80;82.70
56771;DHT22;42641;59.794;17.616;2023-07-08T16:22:06;28.50;82.00
56771;DHT22;42641;59.794;17.616;2023-07-08T16:24:33;28.10;85.70
56771;DHT22;42641;59.794;17.616;2023-07-08T16:26:59;27.80;86.60
56771;DHT22;42641;59.794;17.616;2023-07-08T16:29:26;27.50;87.40
56771;DHT22;42641;59.794;17.616;2023-07-08T16:31:53;27.30;88.80
56771;DHT22;42641;59.794;17.616;2023-07-08T16:39:41;26.60;90.70
56771;DHT22;42641;59.794;17.616;2023-07-08T16:42:13;26.30;91.40
56771;DHT22;42641;59.794;17.616;2023-07-08T16:44:41;26.10;91.70
56771;DHT22;42641;59.794;17.616;2023-07-08T16:47:08;26.00;92.30
56771;DHT22;42641;59.794;17.616;2023-07-08T16:49:34;25.80;92.60
56771;DHT22;42641;59.794;17.616;2023-07-08T18:30:48;22.90;99.90
56771;DHT22;42641;59.794;17.616;2023-07-08T18:36:15;22.70;99.90
56771;DHT22;42641;59.794;17.616;2023-07-08T18:38:43;22.70;99.90
56771;DHT22;42641;59.794;17.616;2023-07-08T18:41:16;22.70;99.90
56771;DHT22;42641;59.794;17.616;2023-07-08T18:43:44;22.70;99.90
56771;DHT22;42641;59.794;17.616;2023-07-08T18:46:11;22.70;99.90
56771;DHT22;42641;59.794;17.616;2023-07-08T18:48:38;23.00;99.90
56771;DHT22;42641;59.794;17.616;2023-07-08T18:51:25;23.20;99.90
56771;DHT22;42641;59.794;17.616;2023-07-08T18:54:02;23.40;99.90
56771;DHT22;42641;59.794;17.616;2023-07-08T18:56:29;23.60;99.90
56771;DHT22;42641;59.794;17.616;2023-07-08T18:58:55;23.70;99.90
56771;DHT22;42641;59.794;17.616;2023-07-08T19:01:24;23.50;99.90
56771;DHT22;42641;59.794;17.616;2023-07-08T19:03:51;23.40;99.90
56771;DHT22;42641;59.794;17.616;2023-07-08T19:06:18;23.20;99.90
56771;DHT22;42641;59.794;17.616;2023-07-08T19:08:46;23.10;99.90
56771;DHT22;42641;59.794;17.616;2023-07-08T19:11:20;22.80;99.90
56771;DHT22;42641;59.794;17.616;2023-07-08T19:13:48;22.70;99.90
56771;DHT22;42641;59.794;17.616;2023-07-08T19:16:16;22.50;99.90
56771;DHT22;42641;59.794;17.616;2023-07-08T19:18:44;22.50;99.90
56771;DHT22;42641;59.794;17.616;2023-07-08T19:21:24;22.50;99.90
56771;DHT22;42641;59.794;17.616;2023-07-08T19:23:53;22.30;99.90
56771;DHT22;42641;59.794;17.616;2023-07-08T19:26:23;22.20;99.90
56771;DHT22;42641;59.794;17.616;2023-07-08T19:28:51;22.10;99.90
56771;DHT22;42641;59.794;17.616;2023-07-08T19:33:44;21.70;99.90
56771;DHT22;42641;59.794;17.616;2023-07-08T19:36:11;21.60;99.90
56771;DHT22;42641;59.794;17.616;2023-07-08T19:38:37;21.50;99.90
56771;DHT22;42641;59.794;17.616;2023-07-08T19:41:04;21.30;99.90
56771;DHT22;42641;59.794;17.616;2023-07-08T19:43:31;21.20;99.90
56771;DHT22;42641;59.794;17.616;2023-07-08T19:45:58;21.20;99.90
56771;DHT22;42641;59.794;17.616;2023-07-08T19:48:24;21.10;99.90
56771;DHT22;42641;59.794;17.616;2023-07-08T19:50:50;21.00;99.90
56771;DHT22;42641;59.794;17.616;2023-07-08T19:53:17;20.90;99.90
56771;DHT22;42641;59.794;17.616;2023-07-08T19:55:44;20.80;99.90
56771;DHT22;42641;59.794;17.616;2023-07-08T19:58:11;20.80;99.90
56771;DHT22;42641;59.794;17.616;2023-07-08T20:00:43;20.70;99.90
56771;DHT22;42641;59.794;17.616;2023-07-08T20:03:11;20.60;99.90
56771;DHT22;42641;59.794;17.616;2023-07-08T20:05:38;20.50;99.90
56771;DHT22;42641;59.794;17.616;2023-07-08T20:10:48;20.40;99.90
56771;DHT22;42641;59.794;17.616;2023-07-08T20:13:18;20.30;99.90
56771;DHT22;42641;59.794;17.616;2023-07-08T20:15:44;20.30;99.90
56771;DHT22;42641;59.794;17.616;2023-07-08T20:18:12;20.30;99.90
56771;DHT22;42641;59.794;17.616;2023-07-08T20:20:39;20.20;99.90
56771;DHT22;42641;59.794;17.616;2023-07-08T20:23:08;20.00;99.90
56771;DHT22;42641;59.794;17.616;2023-07-08T20:25:35;20.00;99.90
56771;DHT22;42641;59.794;17.616;2023-07-08T20:28:02;20.00;99.90
56771;DHT22;42641;59.794;17.616;2023-07-08T20:30:28;20.00;99.90
56771;DHT22;42641;59.794;17.616;2023-07-08T20:32:56;20.00;99.90
56771;DHT22;42641;59.794;17.616;2023-07-08T20:35:25;20.00;99.90
56771;DHT22;42641;59.794;17.616;2023-07-08T20:37:53;20.00;99.90
56771;DHT22;42641;59.794;17.616;2023-07-08T20:40:22;20.10;99.90
56771;DHT22;42641;59.794;17.616;2023-07-08T20:42:50;20.10;99.90
56771;DHT22;42641;59.794;17.616;2023-07-08T20:45:24;20.00;99.90